Vail, Colorado
Current Conditions -  °F | °C
As of 1:35 AM on Thursday 18 Dec 2014 (Local Time) from KCCU Reporting Station
Light Snow Light Snow  
Wind Chill:   Ceiling: 200
Heat Index: 19°   Visibility: 2mi
Dew Point: 14°   Wind: 13mph
Humidity: 80%   Direction: 270°W
Pressure: 29.98"   Gusts: NA
Location:  39.64°N, 106.38°W
Report Text: KCCU 180835Z AUTO 27011KT 2SM -SN OVC002 M07/M10 A2998 RMK AO2
Loading
Personal Weather Stations






























Interactive Weather Map New forecast layout! Learn more

10-Day Weather Forecast

Advertisements
Track Severe Weather on mobile